createdAt,value
2022-10-22T00:03:00.722Z,6.62
2022-10-22T00:08:03.928Z,6.62
2022-10-22T00:13:07.059Z,6.65
2022-10-22T00:18:09.829Z,6.67
2022-10-22T00:23:12.569Z,6.68
2022-10-22T00:28:15.534Z,6.71
2022-10-22T00:33:18.287Z,6.75
2022-10-22T00:38:21.638Z,6.79
2022-10-22T00:43:24.690Z,6.77
2022-10-22T00:48:30.215Z,6.75
2022-10-22T00:53:39.748Z,6.75
2022-10-22T00:58:46.623Z,6.77
2022-10-22T01:03:50.679Z,6.78
2022-10-22T01:09:11.465Z,6.79
2022-10-22T01:14:16.961Z,6.78
2022-10-22T01:19:56.965Z,6.79
2022-10-22T01:25:35.111Z,6.82
2022-10-22T01:30:39.573Z,6.84
2022-10-22T01:35:45.360Z,6.82
2022-10-22T01:40:49.741Z,6.83
2022-10-22T01:45:57.937Z,6.90
2022-10-22T01:51:35.588Z,6.92
2022-10-22T01:57:11.975Z,6.91
2022-10-22T02:02:43.120Z,6.90
2022-10-22T02:08:03.276Z,6.87
2022-10-22T02:13:11.062Z,6.86
2022-10-22T02:18:15.914Z,6.84
2022-10-22T02:23:20.602Z,6.86
2022-10-22T02:28:39.859Z,6.85
2022-10-22T02:33:47.915Z,6.80
2022-10-22T02:38:52.455Z,6.81
2022-10-22T02:43:55.930Z,6.81
2022-10-22T02:48:58.652Z,6.76
2022-10-22T02:54:01.484Z,6.72
2022-10-22T02:59:04.308Z,6.72
2022-10-22T03:04:07.085Z,6.79
2022-10-22T03:09:10.417Z,6.84
2022-10-22T03:14:13.579Z,6.79
2022-10-22T03:19:16.430Z,6.81
2022-10-22T03:24:26.190Z,6.82
2022-10-22T03:29:31.921Z,6.82
2022-10-22T03:34:34.696Z,6.82
2022-10-22T03:39:38.533Z,6.81
2022-10-22T03:44:41.632Z,6.81
2022-10-22T03:49:44.423Z,6.78
2022-10-22T03:54:47.292Z,6.79
2022-10-22T03:59:51.146Z,6.80
2022-10-22T04:04:53.914Z,6.85
2022-10-22T04:09:56.623Z,6.87
2022-10-22T04:14:59.356Z,6.89
2022-10-22T04:20:03.302Z,6.87
2022-10-22T04:25:06.275Z,6.88
2022-10-22T04:30:10.035Z,6.90
2022-10-22T04:35:12.880Z,6.88
2022-10-22T04:40:15.693Z,6.89
2022-10-22T04:45:18.486Z,6.90
2022-10-22T04:50:21.369Z,6.91
2022-10-22T04:55:24.155Z,6.92
2022-10-22T05:00:27.893Z,6.93
2022-10-22T05:05:30.628Z,6.94
2022-10-22T05:10:33.392Z,6.91
2022-10-22T05:15:36.127Z,6.88
2022-10-22T05:20:42.660Z,6.90
2022-10-22T05:25:45.418Z,6.98
2022-10-22T05:30:56.531Z,7.05
2022-10-22T05:36:00.509Z,7.06
2022-10-22T05:41:07.412Z,7.07
2022-10-22T05:46:23.074Z,7.19
2022-10-22T05:51:28.326Z,7.24
2022-10-22T05:56:32.587Z,7.28
2022-10-22T06:01:35.735Z,7.38
2022-10-22T06:06:40.199Z,7.51
2022-10-22T06:11:43.031Z,7.57
2022-10-22T06:16:45.849Z,7.61
2022-10-22T06:21:49.154Z,7.69
2022-10-22T06:26:52.486Z,7.83
2022-10-22T06:31:55.243Z,7.97
2022-10-22T06:36:58.026Z,8.07
2022-10-22T06:42:00.780Z,8.27
2022-10-22T06:47:03.533Z,8.44
2022-10-22T06:52:06.304Z,8.60
2022-10-22T06:57:09.090Z,8.73
2022-10-22T07:02:11.868Z,8.87
2022-10-22T07:07:15.280Z,9.06
2022-10-22T07:12:18.060Z,9.13
2022-10-22T07:17:20.772Z,9.20
2022-10-22T07:22:23.514Z,9.33
2022-10-22T07:27:26.247Z,9.45
2022-10-22T07:32:28.986Z,9.58
2022-10-22T07:37:31.738Z,9.67
2022-10-22T07:42:34.486Z,9.79
2022-10-22T07:47:37.312Z,9.83
2022-10-22T07:52:40.285Z,9.85
2022-10-22T07:57:43.097Z,9.86
2022-10-22T08:02:46.157Z,9.89
2022-10-22T08:07:48.796Z,9.91
2022-10-22T08:12:51.562Z,10.01
2022-10-22T08:17:54.587Z,10.09
2022-10-22T08:22:57.980Z,10.17
2022-10-22T08:28:00.664Z,10.25
2022-10-22T08:33:03.783Z,10.38
2022-10-22T08:38:06.447Z,10.33
2022-10-22T08:43:12.667Z,10.26
2022-10-22T08:48:38.438Z,10.22
2022-10-22T08:53:49.116Z,10.13
2022-10-22T08:59:10.844Z,10.03
2022-10-22T09:04:41.596Z,10.00
2022-10-22T09:09:51.161Z,9.95
2022-10-22T09:14:54.249Z,9.96
2022-10-22T09:20:23.878Z,10.02
2022-10-22T09:25:29.664Z,10.12
2022-10-22T09:30:35.447Z,10.38
2022-10-22T09:35:53.421Z,10.61
2022-10-22T09:40:58.668Z,10.59
2022-10-22T09:46:04.848Z,10.49
2022-10-22T09:51:25.547Z,10.38
2022-10-22T09:56:35.641Z,10.38
2022-10-22T10:01:39.445Z,10.47
2022-10-22T10:06:44.353Z,10.62
2022-10-22T10:11:58.939Z,10.73
2022-10-22T10:17:19.782Z,10.78
2022-10-22T10:22:31.589Z,10.95
2022-10-22T10:27:46.070Z,11.06
2022-10-22T10:32:55.487Z,11.12
2022-10-22T10:38:09.107Z,11.20
2022-10-22T10:43:38.834Z,11.35
2022-10-22T10:48:56.179Z,11.49
2022-10-22T10:54:16.467Z,11.50
2022-10-22T10:59:28.892Z,11.40
2022-10-22T11:04:48.735Z,11.27
2022-10-22T11:10:00.713Z,11.19
2022-10-22T11:15:09.630Z,11.06
2022-10-22T11:20:24.990Z,10.96
2022-10-22T11:25:33.416Z,10.98
2022-10-22T11:30:38.358Z,11.03
2022-10-22T11:35:44.108Z,11.08
2022-10-22T11:40:57.940Z,11.22
2022-10-22T11:46:26.834Z,11.26
2022-10-22T11:51:38.960Z,11.30
2022-10-22T11:56:41.755Z,11.37
2022-10-22T12:01:48.289Z,11.32
2022-10-22T12:06:56.077Z,11.24
2022-10-22T12:12:05.092Z,11.22
2022-10-22T12:17:07.781Z,11.20
2022-10-22T12:22:10.495Z,11.16
2022-10-22T12:27:25.287Z,11.16
2022-10-22T12:32:41.547Z,11.23
2022-10-22T12:37:44.596Z,11.27
2022-10-22T12:42:49.645Z,11.27
2022-10-22T12:47:57.587Z,11.33
2022-10-22T12:53:00.441Z,11.38
2022-10-22T12:58:06.899Z,11.38
2022-10-22T13:03:26.183Z,11.34
2022-10-22T13:08:29.361Z,11.25
2022-10-22T13:13:45.655Z,11.16
2022-10-22T13:18:48.892Z,11.13
2022-10-22T13:23:58.266Z,11.10
2022-10-22T13:29:02.984Z,11.10
2022-10-22T13:34:11.895Z,11.08
2022-10-22T13:39:22.031Z,11.09
2022-10-22T13:44:24.812Z,11.07
2022-10-22T13:49:27.564Z,11.08
2022-10-22T13:54:30.387Z,11.11
2022-10-22T13:59:33.162Z,11.11
2022-10-22T14:04:39.230Z,11.12
2022-10-22T14:09:42.472Z,11.12
2022-10-22T14:14:45.302Z,11.12
2022-10-22T14:19:49.709Z,11.11
2022-10-22T14:24:52.550Z,11.11
2022-10-22T14:29:59.391Z,11.12
2022-10-22T14:35:02.525Z,11.12
2022-10-22T14:40:06.740Z,11.13
2022-10-22T14:45:22.357Z,11.18
2022-10-22T14:50:25.424Z,11.19
2022-10-22T14:55:29.166Z,11.20
2022-10-22T15:00:32.045Z,11.22
2022-10-22T15:05:36.433Z,11.20
2022-10-22T15:10:39.319Z,11.20
2022-10-22T15:15:42.082Z,11.25
2022-10-22T15:20:55.695Z,11.26
2022-10-22T15:25:58.823Z,11.25
2022-10-22T15:31:01.549Z,11.25
2022-10-22T15:36:12.791Z,11.24
2022-10-22T15:41:15.889Z,11.25
2022-10-22T15:46:19.719Z,11.24
2022-10-22T15:51:22.569Z,11.24
2022-10-22T15:56:27.761Z,11.21
2022-10-22T16:01:32.513Z,11.23
2022-10-22T16:06:37.607Z,11.22
2022-10-22T16:11:41.505Z,11.22
2022-10-22T16:16:47.041Z,11.23
2022-10-22T16:21:51.775Z,11.24
2022-10-22T16:26:55.460Z,11.24
2022-10-22T16:31:58.189Z,11.25
2022-10-22T16:37:00.991Z,11.25
2022-10-22T16:42:03.978Z,11.23
2022-10-22T16:47:06.721Z,11.24
2022-10-22T16:52:09.543Z,11.25
2022-10-22T16:57:12.549Z,11.26
2022-10-22T17:02:15.276Z,11.27
2022-10-22T17:07:18.083Z,11.28
2022-10-22T17:12:20.873Z,11.29
2022-10-22T17:17:23.611Z,11.28
2022-10-22T17:22:26.602Z,11.26
2022-10-22T17:27:29.346Z,11.28
2022-10-22T17:32:35.584Z,11.28
2022-10-22T17:37:38.582Z,11.30
2022-10-22T17:42:41.692Z,11.30
2022-10-22T17:47:44.630Z,11.31
2022-10-22T17:52:47.393Z,11.32
2022-10-22T17:57:50.175Z,11.31
2022-10-22T18:02:52.965Z,11.32
2022-10-22T18:07:58.837Z,11.33
2022-10-22T18:13:01.596Z,11.34
2022-10-22T18:18:04.538Z,11.33
2022-10-22T18:23:07.661Z,11.34
2022-10-22T18:28:12.816Z,11.35
2022-10-22T18:33:17.937Z,11.37
2022-10-22T18:38:23.818Z,11.39
2022-10-22T18:43:26.917Z,11.40
2022-10-22T18:48:29.740Z,11.43
2022-10-22T18:53:32.921Z,11.46
2022-10-22T18:58:45.027Z,11.48
2022-10-22T19:03:49.182Z,11.48
2022-10-22T19:08:52.110Z,11.46
2022-10-22T19:13:54.846Z,11.45
2022-10-22T19:19:04.387Z,11.44
2022-10-22T19:24:07.394Z,11.45
2022-10-22T19:29:13.428Z,11.45
2022-10-22T19:34:16.611Z,11.46
2022-10-22T19:39:20.322Z,11.48
2022-10-22T19:44:23.266Z,11.49
2022-10-22T19:49:26.090Z,11.50
2022-10-22T19:54:28.825Z,11.51
2022-10-22T19:59:32.283Z,11.54
2022-10-22T20:04:36.429Z,11.56
2022-10-22T20:09:39.314Z,11.57
2022-10-22T20:14:42.387Z,11.57
2022-10-22T20:19:45.046Z,11.59
2022-10-22T20:24:47.828Z,11.59
2022-10-22T20:29:50.608Z,11.59
2022-10-22T20:34:53.331Z,11.60
2022-10-22T20:39:56.073Z,11.60
2022-10-22T20:44:58.806Z,11.60
2022-10-22T20:50:01.698Z,11.61
2022-10-22T20:55:05.533Z,11.63
2022-10-22T21:00:09.047Z,11.66
2022-10-22T21:05:11.841Z,11.68
2022-10-22T21:10:14.671Z,11.70
2022-10-22T21:15:17.432Z,11.72
2022-10-22T21:20:22.416Z,11.73
2022-10-22T21:25:27.661Z,11.74
2022-10-22T21:30:30.467Z,11.75
2022-10-22T21:35:33.607Z,11.77
2022-10-22T21:40:36.848Z,11.79
2022-10-22T21:45:39.692Z,11.82
2022-10-22T21:50:44.166Z,11.83
2022-10-22T21:55:46.925Z,11.82
2022-10-22T22:00:55.644Z,11.83
2022-10-22T22:06:00.892Z,11.79
2022-10-22T22:11:07.222Z,11.77
2022-10-22T22:16:13.759Z,11.77
2022-10-22T22:21:19.885Z,11.78
2022-10-22T22:26:28.469Z,11.79
2022-10-22T22:31:34.319Z,11.77
2022-10-22T22:36:40.258Z,11.76
2022-10-22T22:41:43.530Z,11.76
2022-10-22T22:46:46.438Z,11.74
2022-10-22T22:51:49.630Z,11.71
2022-10-22T22:56:52.389Z,11.69
2022-10-22T23:01:55.281Z,11.71
2022-10-22T23:06:58.182Z,11.69
2022-10-22T23:12:00.981Z,11.68
2022-10-22T23:17:03.807Z,11.69
2022-10-22T23:22:06.632Z,11.67
2022-10-22T23:27:10.149Z,11.66
2022-10-22T23:32:16.902Z,11.66
2022-10-22T23:37:19.807Z,11.65
2022-10-22T23:42:22.604Z,11.62
2022-10-22T23:47:25.358Z,11.62
2022-10-22T23:52:28.497Z,11.62
2022-10-22T23:57:31.156Z,11.59
